Home > Products > Valid Products > TAF

000
FTUS43 KABR 230600 AAA
TAFATY
TAF AMD
KATY 230634Z 2307/2406 VRB05KT P6SM SKC
     FM231000 VRB04KT 2SM BR SKC
     FM231500 23005KT P6SM SKC=



000
FTUS43 KABR 230500
TAFPIR
TAF
KPIR 230528Z 2306/2406 VRB05KT P6SM SKC
     FM231800 20008KT P6SM SKC=



000
FTUS43 KABR 230500
TAFATY
TAF
KATY 230528Z 2306/2406 21006KT 4SM BR SCT001
      TEMPO 2306/2308 1SM BR
     FM230800 VRB04KT 1SM BR SKC
      TEMPO 2308/2312 1/4SM FG VV001
     FM231500 23005KT P6SM SKC=



000
FTUS43 KABR 230500
TAFMBG
TAF
KMBG 230528Z 2306/2406 VRB05KT P6SM SKC
     FM231800 20009KT P6SM SKC=



000
FTUS43 KABR 230500
TAFABR
TAF
KABR 230528Z 2306/2406 VRB05KT P6SM SKC
      TEMPO 2310/2313 3SM BR=



000
FTUS43 KABR 230400 AAB
TAFATY
TAF AMD
KATY 230455Z 2305/2324 22006KT 3/4SM BR VV001
      TEMPO 2308/2312 1/4SM FG VV001
     FM231500 23005KT P6SM SKC=



000
FTUS43 KABR 230400 AAB
TAFATY
TAF AMD
KATY 230455Z 2305/2324 22006KT 3/4SM BR VV001
      TEMPO 2308/2312 1/4SM FG VV001
     FM231500 23005KT P6SM SKC=



000
FTUS43 KABR 230400 AAA
TAFATY
TAF AMD
KATY 230413Z 2304/2324 24008KT 5SM BR SKC
      TEMPO 2304/2308 1SM BR
     FM230800 VRB04KT 1SM BR SKC
      TEMPO 2308/2312 1/4SM FG VV001
     FM231500 23005KT P6SM SKC=



000
FTUS43 KABR 230400 AAA
TAFATY
TAF AMD
KATY 230413Z 2304/2324 24008KT 5SM BR SKC
      TEMPO 2304/2308 1SM BR
     FM230800 VRB04KT 1SM BR SKC
      TEMPO 2308/2312 1/4SM FG VV001
     FM231500 23005KT P6SM SKC=



000
FTUS43 KABR 222300
TAFABR
TAF
KABR 222320Z 2300/2324 26007KT P6SM BKN100
     FM230200 22006KT P6SM SKC
      TEMPO 2310/2313 3SM BR=



000
FTUS43 KABR 222300
TAFPIR
TAF
KPIR 222320Z 2300/2324 33006KT P6SM SKC
     FM231800 20008KT P6SM SKC=



000
FTUS43 KABR 222300
TAFATY
TAF
KATY 222320Z 2300/2324 19006KT P6SM BKN020 OVC090
     FM230200 25004KT P6SM SCT100
      TEMPO 2310/2313 1SM BR
     FM231500 23005KT P6SM SKC=



000
FTUS43 KABR 222300
TAFMBG
TAF
KMBG 222320Z 2300/2324 29007KT P6SM SKC
     FM231800 20009KT P6SM SKC=



000
FTUS43 KABR 222300 AAB
TAFATY
TAF AMD
KATY 222308Z 2223/2318 19006KT P6SM BKN020 OVC090
     FM230100 20005KT P6SM SKC=



000
FTUS43 KABR 222300 AAB
TAFATY
TAF AMD
KATY 222308Z 2223/2318 19006KT P6SM BKN020 OVC090
     FM230100 20005KT P6SM SKC=



000
FTUS43 KABR 222000 AAA
TAFATY
TAF AMD
KATY 222047Z 2221/2318 21011KT P6SM -SHRA OVC050
     FM222200 21010KT P6SM BKN100
     FM230100 20005KT P6SM SKC=



000
FTUS43 KABR 222000 AAA
TAFABR
TAF AMD
KABR 222045Z 2221/2318 27010KT P6SM BKN100
     FM230100 21006KT P6SM SKC=



000
FTUS43 KABR 221700
TAFABR
TAF
KABR 221722Z 2218/2318 29014KT P6SM -SHRA OVC070
     FM222100 27010KT P6SM BKN100
     FM230100 21006KT P6SM SKC=



000
FTUS43 KABR 221700
TAFPIR
TAF
KPIR 221722Z 2218/2318 29011KT P6SM BKN100
     FM230100 18005KT P6SM SKC=



000
FTUS43 KABR 221700
TAFMBG
TAF
KMBG 221722Z 2218/2318 30011KT P6SM BKN100
     FM230100 19005KT P6SM SKC=



000
FTUS43 KABR 221700
TAFATY
TAF
KATY 221722Z 2218/2318 19015G23KT P6SM BKN100
     FM222000 27014KT P6SM -SHRA OVC070
     FM222300 21006KT P6SM BKN100
     FM230100 20005KT P6SM SKC=



000
FTUS43 KABR 221700
TAFMBG
TAF
KMBG 221722Z 2218/2318 30011KT P6SM BKN100
     FM230100 19005KT P6SM SKC=



000
FTUS43 KABR 221700
TAFPIR
TAF
KPIR 221722Z 2218/2318 29011KT P6SM BKN100
     FM230100 18005KT P6SM SKC=



000
FTUS43 KABR 221700
TAFABR
TAF
KABR 221722Z 2218/2318 29014KT P6SM -SHRA OVC070
     FM222100 27010KT P6SM BKN100
     FM230100 21006KT P6SM SKC=



000
FTUS43 KABR 221700
TAFATY
TAF
KATY 221722Z 2218/2318 19015G23KT P6SM BKN100
     FM222000 27014KT P6SM -SHRA OVC070
     FM222300 21006KT P6SM BKN100
     FM230100 20005KT P6SM SKC=



000
FTUS43 KABR 221500 AAA
TAFATY
TAF AMD
KATY 221544Z 2216/2312 18014G25KT P6SM BKN200
     FM221800 18015KT P6SM BKN100
      TEMPO 2219/2223 P6SM -SHRA BKN050
     FM230400 VRB05KT P6SM SKC=



000
FTUS43 KABR 221500 AAA
TAFATY
TAF AMD
KATY 221544Z 2216/2312 18014G25KT P6SM BKN200
     FM221800 18015KT P6SM BKN100
      TEMPO 2219/2223 P6SM -SHRA BKN050
     FM230400 VRB05KT P6SM SKC=



000
FTUS43 KABR 221500 AAA
TAFABR
TAF AMD
KABR 221538Z 2216/2312 19014KT P6SM BKN100
      TEMPO 2218/2222 P6SM -SHRA OVC050
     FM230100 20006KT P6SM SKC=



000
FTUS43 KABR 221500 AAA
TAFABR
TAF AMD
KABR 221538Z 2216/2312 19014KT P6SM BKN100
      TEMPO 2218/2222 P6SM -SHRA OVC050
     FM230100 20006KT P6SM SKC=



000
FTUS43 KABR 221300 AAB
TAFMBG
TAF AMD
KMBG 221323Z 2213/2312 30014G23KT P6SM OVC090
      TEMPO 2214/2218 P6SM -SHRA OVC040
     FM221800 31010KT P6SM BKN050
     FM222200 VRB05KT P6SM SKC=



000
FTUS43 KABR 221300 AAB
TAFPIR
TAF AMD
KPIR 221320Z 2213/2312 31015G24KT P6SM OVC080
      TEMPO 2213/2217 P6SM -SHRA OVC040
     FM222200 VRB05KT P6SM SKC=



000
FTUS43 KABR 221200 AAA
TAFPIR
TAF AMD
KPIR 221241Z 2213/2312 32007KT P6SM OVC200
     FM221300 30011KT P6SM VCSH OVC050
      TEMPO 2216/2219 4SM -RA OVC020
     FM222200 VRB05KT P6SM SKC=



000
FTUS43 KABR 221200 AAA
TAFMBG
TAF AMD
KMBG 221240Z 2213/2312 VRB05KT P6SM OVC200
     FM221300 31010KT P6SM VCSH BKN050
     FM222200 VRB05KT P6SM SKC=



000
FTUS43 KABR 221100
TAFMBG
TAF
KMBG 221121Z 2212/2312 VRB05KT P6SM OVC200
     FM221500 31010KT P6SM VCSH BKN050
     FM222200 VRB05KT P6SM SKC=



000
FTUS43 KABR 221100
TAFPIR
TAF
KPIR 221121Z 2212/2312 13009KT P6SM OVC200
     FM221400 30011KT P6SM VCSH OVC050
      TEMPO 2216/2219 4SM -RA OVC020
     FM222200 VRB05KT P6SM SKC=



000
FTUS43 KABR 221100
TAFATY
TAF
KATY 221121Z 2212/2312 16018G25KT P6SM SCT200
     FM221900 18015KT P6SM VCSH BKN050 OVC200
      TEMPO 2222/2301 4SM -RA OVC020
     FM230400 VRB05KT P6SM SKC=



000
FTUS43 KABR 221100
TAFABR
TAF
KABR 221121Z 2212/2312 18015G23KT P6SM BKN200
     FM221700 23010KT P6SM VCSH BKN050 OVC200
      TEMPO 2221/2224 4SM -RA OVC020
     FM230300 VRB05KT P6SM SKC=



000
FTUS43 KABR 220500
TAFATY
TAF
KATY 220523Z 2206/2306 16014KT P6SM SCT200
     FM221800 18017KT P6SM VCSH BKN070
     FM222100 19013KT P6SM -RA OVC025=



000
FTUS43 KABR 220500
TAFPIR
TAF
KPIR 220523Z 2206/2306 13013KT P6SM BKN200
     FM221100 20008KT P6SM VCSH OVC100
     FM221500 30015KT P6SM VCSH OVC035
     FM222100 27005KT P6SM BKN250=



000
FTUS43 KABR 220500
TAFABR
TAF
KABR 220523Z 2206/2306 16018G25KT P6SM SCT200
     FM221700 23010KT P6SM VCSH BKN050
     FM222100 27011KT P6SM VCSH BKN030=



000
FTUS43 KABR 220500
TAFMBG
TAF
KMBG 220523Z 2206/2306 14010KT P6SM BKN200
     FM221200 11006KT P6SM VCSH OVC250
     FM221500 31010KT P6SM VCSH BKN050
     FM222100 24005KT P6SM BKN250=



000
FTUS43 KABR 220500
TAFATY
TAF
KATY 220523Z 2206/2306 16014KT P6SM SCT200
     FM221800 18017KT P6SM VCSH BKN070
     FM222100 19013KT P6SM -RA OVC025=



000
FTUS43 KABR 220500
TAFMBG
TAF
KMBG 220523Z 2206/2306 14010KT P6SM BKN200
     FM221200 11006KT P6SM VCSH OVC250
     FM221500 31010KT P6SM VCSH BKN050
     FM222100 24005KT P6SM BKN250=



000
FTUS43 KABR 220500
TAFPIR
TAF
KPIR 220523Z 2206/2306 13013KT P6SM BKN200
     FM221100 20008KT P6SM VCSH OVC100
     FM221500 30015KT P6SM VCSH OVC035
     FM222100 27005KT P6SM BKN250=



000
FTUS43 KABR 220500
TAFABR
TAF
KABR 220523Z 2206/2306 16018G25KT P6SM SCT200
     FM221700 23010KT P6SM VCSH BKN050
     FM222100 27011KT P6SM VCSH BKN030=



000
FTUS43 KABR 220300 AAA
TAFMBG
TAF AMD
KMBG 220355Z 2204/2224 14014KT P6SM SKC
     FM220900 15014KT P6SM OVC250
     FM221400 30007KT P6SM VCSH OVC050=



000
FTUS43 KABR 220300 AAA
TAFPIR
TAF AMD
KPIR 220355Z 2204/2224 12014KT P6SM SCT200
     FM220900 18008KT P6SM OVC100
     FM221400 30011KT P6SM VCSH OVC050=



000
FTUS43 KABR 220300 AAA
TAFPIR
TAF AMD
KPIR 220355Z 2204/2224 12014KT P6SM SCT200
     FM220900 18008KT P6SM OVC100
     FM221400 30011KT P6SM VCSH OVC050=



000
FTUS43 KABR 220300 AAA
TAFMBG
TAF AMD
KMBG 220355Z 2204/2224 14014KT P6SM SKC
     FM220900 15014KT P6SM OVC250
     FM221400 30007KT P6SM VCSH OVC050=



000
FTUS43 KABR 212300
TAFPIR
TAF
KPIR 212322Z 2200/2224 17017G26KT P6SM SKC
     FM220600 14013KT P6SM OVC250
     FM220900 18008KT P6SM OVC100
     FM221500 30011KT P6SM VCSH OVC050=



000
FTUS43 KABR 212300
TAFATY
TAF
KATY 212322Z 2200/2224 15013G20KT P6SM SKC
     FM221500 16016KT P6SM OVC020
     FM222100 19010KT P6SM VCSH BKN030=



000
FTUS43 KABR 212300
TAFMBG
TAF
KMBG 212322Z 2200/2224 17018KT P6SM SKC
     FM220900 15014KT P6SM OVC250
     FM221500 30007KT P6SM VCSH OVC050=



000
FTUS43 KABR 212300
TAFABR
TAF
KABR 212322Z 2200/2224 16016KT P6SM SKC
     FM221500 19011KT P6SM OVC100
     FM221800 21010KT P6SM VCSH OVC050=



000
FTUS43 KABR 211800 AAA
TAFPIR
TAF AMD
KPIR 211814Z 2118/2218 18020G30KT P6SM SKC
     FM220200 14013KT P6SM BKN250
     FM220800 17008KT P6SM OVC080
     FM221300 30011KT P6SM OVC060=



000
FTUS43 KABR 211700
TAFATY
TAF
KATY 211727Z 2118/2218 16016G25KT P6SM SKC
     FM220400 16017KT P6SM BKN250
     FM221400 19015G20KT P6SM OVC060=



000
FTUS43 KABR 211700
TAFABR
TAF
KABR 211727Z 2118/2218 17015G23KT P6SM SKC
     FM220500 16016KT P6SM BKN250
     FM221100 17015G20KT P6SM OVC060=



000
FTUS43 KABR 211700
TAFMBG
TAF
KMBG 211727Z 2118/2218 16017G22KT P6SM SKC
     FM220200 15015KT P6SM BKN250
     FM221300 29010KT P6SM BKN200=



000
FTUS43 KABR 211700
TAFPIR
TAF
KPIR 211727Z 2118/2218 16015KT P6SM SKC
     FM211900 16017G25KT P6SM SKC
     FM220200 14013KT P6SM BKN250
     FM220800 17008KT P6SM OVC080
     FM221300 30011KT P6SM OVC060=



000
FTUS43 KABR 211100
TAFATY
TAF
KATY 211126Z 2112/2212 14008KT P6SM SKC
     FM211500 16016G25KT P6SM SKC
     FM220400 16017KT P6SM BKN250
     FM220900 15015KT P6SM OVC050=



000
FTUS43 KABR 211100
TAFABR
TAF
KABR 211126Z 2112/2212 13008KT P6SM SKC
     FM211500 16017G25KT P6SM SKC
     FM220300 16016KT P6SM BKN250=



000
FTUS43 KABR 211100
TAFPIR
TAF
KPIR 211126Z 2112/2212 14011KT P6SM SKC
     FM211500 16018G26KT P6SM SKC
     FM220200 14013KT P6SM BKN250=



000
FTUS43 KABR 211100
TAFMBG
TAF
KMBG 211126Z 2112/2212 13012KT P6SM SKC
     FM211500 16018G26KT P6SM SKC
     FM220200 15015KT P6SM BKN250=



000
FTUS43 KABR 211100
TAFABR
TAF
KABR 211126Z 2112/2212 13008KT P6SM SKC
     FM211500 16017G25KT P6SM SKC
     FM220300 16016KT P6SM BKN250=



000
FTUS43 KABR 211100
TAFPIR
TAF
KPIR 211126Z 2112/2212 14011KT P6SM SKC
     FM211500 16018G26KT P6SM SKC
     FM220200 14013KT P6SM BKN250=



000
FTUS43 KABR 211100
TAFMBG
TAF
KMBG 211126Z 2112/2212 13012KT P6SM SKC
     FM211500 16018G26KT P6SM SKC
     FM220200 15015KT P6SM BKN250=



000
FTUS43 KABR 211100
TAFATY
TAF
KATY 211126Z 2112/2212 14008KT P6SM SKC
     FM211500 16016G25KT P6SM SKC
     FM220400 16017KT P6SM BKN250
     FM220900 15015KT P6SM OVC050=



000
FTUS43 KABR 210500
TAFABR
TAF
KABR 210524Z 2106/2206 VRB05KT P6SM SKC
     FM211500 16018G28KT P6SM SKC
     FM220000 15016KT P6SM SCT250=



000
FTUS43 KABR 210500
TAFMBG
TAF
KMBG 210524Z 2106/2206 13014KT P6SM SKC
     FM211700 16020G30KT P6SM SKC
     FM220000 15015KT P6SM BKN250=



000
FTUS43 KABR 210500
TAFATY
TAF
KATY 210524Z 2106/2206 VRB05KT P6SM SKC
     FM211500 16016G27KT P6SM SKC
     FM220000 15015KT P6SM SKC=



000
FTUS43 KABR 210500
TAFPIR
TAF
KPIR 210524Z 2106/2206 13012KT P6SM SKC
     FM211700 16018G29KT P6SM SKC
     FM220000 14016KT P6SM SCT250=



000
FTUS43 KABR 202300
TAFABR
TAF
KABR 202320Z 2100/2124 16004KT P6SM SKC
     FM211500 16018G28KT P6SM SKC=



000
FTUS43 KABR 202300
TAFATY
TAF
KATY 202320Z 2100/2124 VRB04KT P6SM SKC
     FM210300 14003KT P6SM SKC
     FM211500 16016G27KT P6SM SKC=



000
FTUS43 KABR 202300
TAFMBG
TAF
KMBG 202320Z 2100/2124 15011KT P6SM SKC
     FM211700 16020G30KT P6SM SKC=



000
FTUS43 KABR 202300
TAFPIR
TAF
KPIR 202320Z 2100/2124 14011KT P6SM SKC
     FM211700 16018G29KT P6SM SKC=



000
FTUS43 KABR 201700
TAFATY
TAF
KATY 201727Z 2018/2118 VRB04KT P6SM SKC
     FM210500 14007KT P6SM SKC
     FM211400 15015KT P6SM FEW100=



000
FTUS43 KABR 201700
TAFPIR
TAF
KPIR 201727Z 2018/2118 14010KT P6SM SKC
     FM211500 15015KT P6SM FEW100=



000
FTUS43 KABR 201700
TAFMBG
TAF
KMBG 201727Z 2018/2118 16011KT P6SM SKC
     FM201900 17015KT P6SM SKC
     FM211500 15016KT P6SM FEW100=



000
FTUS43 KABR 201700
TAFABR
TAF
KABR 201727Z 2018/2118 17003KT P6SM SKC
     FM210000 14007KT P6SM SKC
     FM211400 14010KT P6SM FEW100=



000
FTUS43 KABR 201100
TAFMBG
TAF
KMBG 201121Z 2012/2112 VRB05KT P6SM SKC
     FM201900 14011KT P6SM SKC=



000
FTUS43 KABR 201100
TAFATY
TAF
KATY 201121Z 2012/2112 VRB05KT P6SM SKC
     FM210600 13007KT P6SM SKC=



000
FTUS43 KABR 201100
TAFABR
TAF
KABR 201121Z 2012/2112 VRB05KT P6SM SKC
     FM210300 13008KT P6SM SKC=



000
FTUS43 KABR 201100
TAFPIR
TAF
KPIR 201121Z 2012/2112 VRB05KT P6SM SKC
     FM201900 13010KT P6SM SKC=



    US Dept of Commerce
    National Oceanic and Atmospheric Administration
    National Weather Service
    1325 East West Highway
    Silver Spring, MD 20910
    Page Author: NWS Internet Services Team
Disclaimer
Information Quality
Credits
Glossary
Privacy Policy
Freedom of Information Act (FOIA)
About Us
Career Opportunities